Time;durP1;ratioP1;P1;durP2;ratioP2;P2;SDS_P1;SDS_P2;PMS_P1;PMS_P2;Temp;Humidity;BMP_temperature;BMP_pressure;BME280_temperature;BME280_humidity;BME280_pressure;Samples;Min_cycle;Max_cycle;Signal;HPM_P1;HPM_P2
2022/04/11 00:01:01;;;;;;;;;;;;;;;12.47;43.44;102052.69;5056158;28;19927;-76
2022/04/11 00:03:26;;;;;;;;;;;;;;;12.41;43.35;102058.06;5056127;28;20582;-77
2022/04/11 00:05:51;;;;;;;;;;;;;;;12.47;43.25;102065.31;5055711;28;20368;-77
2022/04/11 00:08:19;;;;;;;;;;;;;;;12.38;43.33;102058.47;5055704;28;19987;-77
2022/04/11 00:10:44;;;;;;;;;;;;;;;12.39;42.92;102055.56;5056434;28;19912;-77
2022/04/11 00:13:10;;;;;;;;;;;;;;;12.42;42.86;102049.78;5055634;28;19967;-78
2022/04/11 00:15:38;;;;;;;;;;;;;;;12.50;42.78;102052.25;5056018;28;19996;-78
2022/04/11 00:18:04;;;;;;;;;;;;;;;12.37;42.27;102044.16;5055806;28;19935;-77
2022/04/11 00:20:29;;;;;;;;;;;;;;;12.47;42.38;102044.59;5056257;28;19920;-78
2022/04/11 00:22:55;;;;;;;;;;;;;;;12.33;42.95;102042.94;5055665;28;19909;-76
2022/04/11 00:25:20;;;;;;;;;;;;;;;12.38;42.14;102043.97;5056316;28;20342;-77
2022/04/11 00:27:45;;;;;;;;;;;;;;;12.29;42.68;102038.97;5055777;28;19917;-77
2022/04/11 00:30:11;;;;;;;;;;;;;;;12.38;42.58;102035.88;5055739;28;20399;-78
2022/04/11 00:32:40;;;;;;;;;;;;;;;12.38;42.42;102035.88;5055666;28;20004;-78
2022/04/11 00:35:06;;;;;;;;;;;;;;;12.32;41.77;102035.88;5055373;28;19913;-78
2022/04/11 00:37:31;;;;;;;;;;;;;;;12.32;42.84;102035.88;5055738;28;19913;-77
2022/04/11 00:39:56;;;;;;;;;;;;;;;12.34;43.12;102029.22;5055592;28;20494;-76
2022/04/11 00:42:26;;;;;;;;;;;;;;;12.34;42.81;102028.44;5053783;28;19920;-77
2022/04/11 00:44:51;;;;;;;;;;;;;;;12.42;42.86;102028.22;5055653;28;19923;-77
2022/04/11 00:47:16;;;;;;;;;;;;;;;12.43;42.47;102021.78;5054771;28;19924;-77
2022/04/11 00:49:42;;;;;;;;;;;;;;;12.55;42.49;102021.97;5055587;28;19921;-77
2022/04/11 00:52:07;;;;;;;;;;;;;;;12.31;42.48;102018.03;5055216;28;19958;-77
2022/04/11 00:54:32;;;;;;;;;;;;;;;12.27;42.78;102025.72;5052963;28;20356;-77
2022/04/11 00:56:58;;;;;;;;;;;;;;;12.29;42.94;102014.72;5054606;28;20396;-77
2022/04/11 00:59:24;;;;;;;;;;;;;;;12.27;44.07;102011.41;5055054;28;19913;-77
2022/04/11 01:01:49;;;;;;;;;;;;;;;12.32;44.13;102009.75;5054908;28;20407;-77
2022/04/11 01:04:24;;;;;;;;;;;;;;;12.45;43.89;102013.47;5055204;28;19967;-78
2022/04/11 01:06:56;;;;;;;;;;;;;;;12.55;42.87;102022.81;5055099;28;19948;-78
2022/04/11 01:09:25;;;;;;;;;;;;;;;12.41;43.78;102012.22;5054651;28;19917;-77
2022/04/11 01:11:50;;;;;;;;;;;;;;;12.55;43.37;102012.03;5052957;28;19913;-78
2022/04/11 01:14:15;;;;;;;;;;;;;;;12.64;43.07;102005.34;5054799;28;19916;-77
2022/04/11 01:16:46;;;;;;;;;;;;;;;12.65;43.16;102003.50;5055073;28;20340;-78
2022/04/11 01:19:11;;;;;;;;;;;;;;;12.73;42.50;101997.88;5054568;28;19928;-78
2022/04/11 01:21:36;;;;;;;;;;;;;;;12.75;42.61;102002.03;5054444;28;19920;-78
2022/04/11 01:24:02;;;;;;;;;;;;;;;12.67;42.90;102007.66;5055109;28;19923;-77
2022/04/11 01:26:27;;;;;;;;;;;;;;;12.77;42.43;102001.81;5053624;28;19916;-78
2022/04/11 01:28:53;;;;;;;;;;;;;;;12.66;42.54;102010.56;5053885;28;19917;-77
2022/04/11 01:31:18;;;;;;;;;;;;;;;12.70;42.62;102000.97;5054328;28;19976;-77
2022/04/11 01:33:44;;;;;;;;;;;;;;;12.60;42.62;102006.00;5053613;28;19916;-77
2022/04/11 01:36:09;;;;;;;;;;;;;;;12.56;43.32;102008.28;5053670;28;19956;-78
2022/04/11 01:38:34;;;;;;;;;;;;;;;12.71;42.45;102010.75;5053364;28;19913;-79
2022/04/11 01:40:59;;;;;;;;;;;;;;;12.78;42.45;102000.75;5053076;28;19916;-77
2022/04/11 01:43:25;;;;;;;;;;;;;;;12.76;42.08;102000.97;5054817;28;20038;-77
2022/04/11 01:45:51;;;;;;;;;;;;;;;12.86;41.81;102003.22;5053467;28;20364;-78
2022/04/11 01:48:17;;;;;;;;;;;;;;;12.85;42.38;102001.59;5053730;28;20011;-77
2022/04/11 01:50:42;;;;;;;;;;;;;;;12.82;42.11;101992.03;5053724;28;19967;-77
2022/04/11 01:53:12;;;;;;;;;;;;;;;12.68;42.46;101998.50;5053337;28;19963;-77
2022/04/11 01:55:37;;;;;;;;;;;;;;;12.69;42.95;102000.19;5053970;28;19919;-78
2022/04/11 01:58:04;;;;;;;;;;;;;;;12.63;42.60;102001.00;5052510;28;19913;-78
2022/04/11 02:00:29;;;;;;;;;;;;;;;12.66;42.39;101999.78;5053427;28;20402;-77
2022/04/11 02:02:55;;;;;;;;;;;;;;;12.66;42.96;102003.28;5052865;28;19916;-78
2022/04/11 02:05:20;;;;;;;;;;;;;;;12.68;42.81;102001.19;5052981;28;19931;-77
2022/04/11 02:07:45;;;;;;;;;;;;;;;12.47;43.12;102001.44;5053436;28;19913;-78
2022/04/11 02:10:11;;;;;;;;;;;;;;;12.85;42.20;102004.28;5052107;28;20021;-77
2022/04/11 02:12:36;;;;;;;;;;;;;;;12.92;41.81;102002.38;5050171;28;19916;-77
2022/04/11 02:15:01;;;;;;;;;;;;;;;12.86;42.31;101997.84;5051474;28;19912;-76
2022/04/11 02:17:26;;;;;;;;;;;;;;;12.82;42.47;101994.75;5052474;28;19944;-79
2022/04/11 02:19:52;;;;;;;;;;;;;;;12.78;42.32;101996.19;5052953;28;19920;-78
2022/04/11 02:22:17;;;;;;;;;;;;;;;12.93;42.66;101990.56;5052167;28;19908;-78
2022/04/11 02:24:42;;;;;;;;;;;;;;;12.86;42.77;101998.69;5051595;28;20046;-78
2022/04/11 02:27:07;;;;;;;;;;;;;;;12.77;42.50;101997.25;5051606;28;19916;-78
2022/04/11 02:29:33;;;;;;;;;;;;;;;12.81;42.52;101989.56;5051413;28;19952;-77
2022/04/11 02:31:58;;;;;;;;;;;;;;;12.86;41.97;101995.13;5050189;28;19916;-77
2022/04/11 02:34:25;;;;;;;;;;;;;;;12.52;42.56;101993.56;5052080;28;19912;-78
2022/04/11 02:36:50;;;;;;;;;;;;;;;12.77;42.21;101999.13;5051971;28;19913;-78
2022/04/11 02:39:15;;;;;;;;;;;;;;;12.71;42.32;101990.00;5050952;28;19927;-78
2022/04/11 02:41:41;;;;;;;;;;;;;;;12.70;42.06;101992.91;5051408;28;19931;-78
2022/04/11 02:44:06;;;;;;;;;;;;;;;12.88;41.92;101985.81;5051281;28;19919;-78
2022/04/11 02:46:31;;;;;;;;;;;;;;;12.68;42.49;101995.81;5052077;28;19966;-77
2022/04/11 02:48:56;;;;;;;;;;;;;;;12.65;42.36;101990.84;5050176;28;20373;-78
2022/04/11 02:51:22;;;;;;;;;;;;;;;12.52;42.35;101993.56;5051264;28;20277;-79
2022/04/11 02:53:47;;;;;;;;;;;;;;;12.71;42.24;101981.91;5051391;28;20458;-78
2022/04/11 02:56:12;;;;;;;;;;;;;;;12.53;42.67;101981.75;5051662;28;19916;-77
2022/04/11 02:58:37;;;;;;;;;;;;;;;12.43;42.65;101984.03;5052306;28;19974;-76
2022/04/11 03:01:02;;;;;;;;;;;;;;;12.48;42.70;101980.72;5051400;28;20015;-78
2022/04/11 03:03:28;;;;;;;;;;;;;;;12.44;43.05;101985.72;5051423;28;19917;-78
2022/04/11 03:05:53;;;;;;;;;;;;;;;12.41;42.79;101978.03;5050493;28;20273;-78
2022/04/11 03:08:18;;;;;;;;;;;;;;;12.34;42.74;101979.91;5049815;28;19978;-77
2022/04/11 03:10:43;;;;;;;;;;;;;;;12.34;42.37;101977.22;5051625;28;20341;-76
2022/04/11 03:13:09;;;;;;;;;;;;;;;12.32;42.83;101980.09;5051147;28;20331;-77
2022/04/11 03:15:34;;;;;;;;;;;;;;;12.23;42.97;101981.34;5051155;28;19912;-78
2022/04/11 03:17:59;;;;;;;;;;;;;;;12.04;43.11;101974.13;5049772;28;19999;-78
2022/04/11 03:20:25;;;;;;;;;;;;;;;12.15;43.01;101970.78;5050870;28;19921;-78
2022/04/11 03:22:50;;;;;;;;;;;;;;;12.15;43.06;101969.94;5049223;28;19920;-78
2022/04/11 03:25:16;;;;;;;;;;;;;;;12.15;43.08;101970.78;5051723;28;19916;-77
2022/04/11 03:27:41;;;;;;;;;;;;;;;12.16;42.83;101960.84;5051147;28;20381;-78
2022/04/11 03:30:08;;;;;;;;;;;;;;;12.10;43.15;101957.13;5050902;28;19923;-78
2022/04/11 03:32:33;;;;;;;;;;;;;;;12.17;42.86;101960.63;5051630;28;19916;-77
2022/04/11 03:34:59;;;;;;;;;;;;;;;12.18;42.76;101956.06;5051047;28;19919;-77
2022/04/11 03:37:24;;;;;;;;;;;;;;;12.13;42.82;101962.09;5049803;28;20050;-77
2022/04/11 03:39:49;;;;;;;;;;;;;;;12.13;43.25;101966.63;5050869;28;19936;-77
2022/04/11 03:42:15;;;;;;;;;;;;;;;12.19;42.92;101972.03;5051303;28;19932;-78
2022/04/11 03:44:42;;;;;;;;;;;;;;;12.15;42.97;101967.25;5051122;28;19916;-77
2022/04/11 03:47:07;;;;;;;;;;;;;;;12.08;43.34;101966.44;5051332;28;19913;-78
2022/04/11 03:49:32;;;;;;;;;;;;;;;12.07;43.35;101970.16;5051486;28;20394;-77
2022/04/11 03:51:58;;;;;;;;;;;;;;;12.18;43.04;101962.31;5051175;28;20456;-78
2022/04/11 03:54:23;;;;;;;;;;;;;;;12.17;42.95;101965.19;5051042;28;19917;-78
2022/04/11 03:56:48;;;;;;;;;;;;;;;12.08;42.46;101964.59;5050987;28;19923;-78
2022/04/11 03:59:13;;;;;;;;;;;;;;;12.14;43.35;101960.22;5051190;28;19912;-77
2022/04/11 04:01:38;;;;;;;;;;;;;;;11.95;42.96;101958.38;5045584;28;20399;-77
2022/04/11 04:04:04;;;;;;;;;;;;;;;12.18;42.62;101965.00;5030855;28;20320;-78
2022/04/11 04:06:29;;;;;;;;;;;;;;;12.15;43.29;101961.88;5030949;28;20353;-77
2022/04/11 04:08:54;;;;;;;;;;;;;;;12.05;43.21;101964.97;5031309;28;20396;-77
2022/04/11 04:11:20;;;;;;;;;;;;;;;12.22;43.14;101960.84;5031224;28;19921;-77
2022/04/11 04:13:45;;;;;;;;;;;;;;;12.30;42.95;101965.19;5051112;28;20044;-76
2022/04/11 04:16:10;;;;;;;;;;;;;;;12.38;42.82;101966.84;5051795;28;19951;-77
2022/04/11 04:18:35;;;;;;;;;;;;;;;12.42;42.70;101960.00;5054944;28;19927;-78
2022/04/11 04:21:02;;;;;;;;;;;;;;;12.30;43.15;101967.88;5042634;28;20351;-77
2022/04/11 04:23:27;;;;;;;;;;;;;;;12.56;42.69;101958.94;5032790;28;20277;-77
2022/04/11 04:25:52;;;;;;;;;;;;;;;12.27;43.66;101955.66;5034986;28;19916;-76
2022/04/11 04:28:18;;;;;;;;;;;;;;;12.48;43.38;101959.97;5034904;28;20369;-77
2022/04/11 04:30:46;;;;;;;;;;;;;;;12.41;43.44;101956.47;5037888;28;20029;-77
2022/04/11 04:33:12;;;;;;;;;;;;;;;12.65;42.54;101957.66;5054120;28;19917;-78
2022/04/11 04:35:38;;;;;;;;;;;;;;;12.52;42.76;101955.00;5054168;28;19951;-77
2022/04/11 04:38:03;;;;;;;;;;;;;;;12.53;43.06;101948.56;5053793;28;19912;-77
2022/04/11 04:40:29;;;;;;;;;;;;;;;12.64;43.43;101943.34;5054143;28;20410;-77
2022/04/11 04:42:54;;;;;;;;;;;;;;;12.76;42.93;101957.00;5054056;28;20347;-78
2022/04/11 04:45:20;;;;;;;;;;;;;;;12.82;43.00;101950.75;5053979;28;19970;-79
2022/04/11 04:47:46;;;;;;;;;;;;;;;12.84;43.04;101954.06;5054128;28;20446;-77
2022/04/11 04:50:11;;;;;;;;;;;;;;;12.81;43.36;101955.34;5053937;28;19916;-77
2022/04/11 04:52:38;;;;;;;;;;;;;;;12.77;43.17;101945.19;5054825;28;19956;-77
2022/04/11 04:55:03;;;;;;;;;;;;;;;12.93;43.37;101955.50;5053908;28;19923;-78
2022/04/11 04:57:29;;;;;;;;;;;;;;;12.79;43.94;101960.13;5052286;28;19917;-77
2022/04/11 04:59:55;;;;;;;;;;;;;;;13.04;43.30;101949.44;5053573;28;19920;-77
2022/04/11 05:02:20;;;;;;;;;;;;;;;13.09;43.14;101955.03;5053854;28;19912;-76
2022/04/11 05:04:45;;;;;;;;;;;;;;;13.09;43.28;101957.72;5053391;28;19951;-77
2022/04/11 05:07:11;;;;;;;;;;;;;;;13.13;43.97;101956.25;5053696;28;19983;-78
2022/04/11 05:09:36;;;;;;;;;;;;;;;13.07;44.00;101949.03;5055138;28;19995;-77
2022/04/11 05:12:02;;;;;;;;;;;;;;;13.25;43.62;101957.22;5053734;28;19917;-77
2022/04/11 05:14:28;;;;;;;;;;;;;;;13.36;43.56;101953.88;5085657;28;19916;-78
2022/04/11 05:16:53;;;;;;;;;;;;;;;13.07;43.73;101959.84;5053433;28;19912;-76
2022/04/11 05:19:18;;;;;;;;;;;;;;;13.14;43.56;101956.06;5053403;28;19920;-77
2022/04/11 05:21:43;;;;;;;;;;;;;;;13.35;42.95;101954.06;5053085;28;19920;-78
2022/04/11 05:24:09;;;;;;;;;;;;;;;13.28;43.31;101950.59;5051872;28;19933;-77
2022/04/11 05:26:34;;;;;;;;;;;;;;;13.25;43.54;101948.34;5051525;28;19917;-77
2022/04/11 05:28:59;;;;;;;;;;;;;;;13.34;42.91;101953.25;5051291;28;19955;-78
2022/04/11 05:31:24;;;;;;;;;;;;;;;13.35;42.74;101962.16;5052425;28;19909;-76
2022/04/11 05:33:50;;;;;;;;;;;;;;;13.54;42.99;101950.44;5051675;28;20297;-77
2022/04/11 05:36:15;;;;;;;;;;;;;;;13.57;42.64;101955.41;5051658;28;20004;-76
2022/04/11 05:38:40;;;;;;;;;;;;;;;13.68;42.40;101952.81;5050966;28;19970;-77
2022/04/11 05:41:06;;;;;;;;;;;;;;;13.65;42.14;101952.44;5051758;28;19924;-78
2022/04/11 05:43:31;;;;;;;;;;;;;;;13.56;42.56;101945.66;5052030;28;19959;-78
2022/04/11 05:45:56;;;;;;;;;;;;;;;13.65;41.98;101945.16;5051043;28;19924;-77
2022/04/11 05:48:22;;;;;;;;;;;;;;;13.80;41.78;101950.25;5051880;28;19935;-78
2022/04/11 05:50:47;;;;;;;;;;;;;;;13.83;41.22;101947.13;5050582;28;19920;-78
2022/04/11 05:53:12;;;;;;;;;;;;;;;13.72;41.66;101951.34;5051502;28;19913;-78
2022/04/11 05:55:37;;;;;;;;;;;;;;;13.77;41.62;101948.81;5051525;28;19967;-77
2022/04/11 05:58:03;;;;;;;;;;;;;;;13.72;41.50;101943.25;5051415;28;19920;-77
2022/04/11 06:00:28;;;;;;;;;;;;;;;13.86;40.98;101957.47;5051581;28;20366;-78
2022/04/11 06:02:53;;;;;;;;;;;;;;;13.89;41.10;101954.34;5050675;28;19916;-77
2022/04/11 06:05:19;;;;;;;;;;;;;;;13.97;40.86;101963.00;5051236;28;19924;-77
2022/04/11 06:07:44;;;;;;;;;;;;;;;13.77;41.35;101959.63;5051084;28;20378;-78
2022/04/11 06:10:10;;;;;;;;;;;;;;;14.22;40.48;101963.00;5050011;28;19924;-78
2022/04/11 06:12:35;;;;;;;;;;;;;;;14.30;40.23;101960.06;5051342;28;20003;-79
2022/04/11 06:15:00;;;;;;;;;;;;;;;14.29;39.64;101961.09;5050687;28;19967;-78
2022/04/11 06:17:26;;;;;;;;;;;;;;;14.37;38.94;101962.72;5051147;28;20384;-77
2022/04/11 06:19:53;;;;;;;;;;;;;;;14.31;39.53;101959.00;5070786;28;19916;-77
2022/04/11 06:22:18;;;;;;;;;;;;;;;14.48;38.43;101965.50;5050633;28;19923;-78
2022/04/11 06:24:44;;;;;;;;;;;;;;;15.06;37.73;101965.03;5050352;28;20584;-79
2022/04/11 06:27:09;;;;;;;;;;;;;;;15.18;36.75;101964.06;5050277;28;19920;-79
2022/04/11 06:29:34;;;;;;;;;;;;;;;15.00;37.14;101963.25;5050807;28;19964;-79
2022/04/11 06:32:04;;;;;;;;;;;;;;;15.17;36.79;101967.00;5048571;28;19946;-77
2022/04/11 06:34:29;;;;;;;;;;;;;;;15.09;36.53;101970.00;5051730;28;19919;-77
2022/04/11 06:36:54;;;;;;;;;;;;;;;15.20;36.95;101977.34;5051492;28;20351;-78
2022/04/11 06:39:20;;;;;;;;;;;;;;;15.40;36.63;101980.63;5050308;28;20016;-79
2022/04/11 06:41:45;;;;;;;;;;;;;;;15.46;36.78;101980.59;5049981;28;20002;-79
2022/04/11 06:44:11;;;;;;;;;;;;;;;16.03;36.10;101978.28;5052001;28;19935;-77
2022/04/11 06:46:36;;;;;;;;;;;;;;;16.06;35.84;101977.81;5052484;28;20314;-77
2022/04/11 06:49:01;;;;;;;;;;;;;;;16.14;36.02;101978.28;5051550;28;19961;-77
2022/04/11 06:51:27;;;;;;;;;;;;;;;16.01;35.82;101983.94;5050961;28;19917;-79
2022/04/11 06:53:52;;;;;;;;;;;;;;;16.20;34.88;101982.78;5051652;28;20351;-78
2022/04/11 06:56:17;;;;;;;;;;;;;;;15.91;34.70;101983.66;5049482;28;20315;-77
2022/04/11 06:58:42;;;;;;;;;;;;;;;16.14;34.72;101978.28;5052085;28;19912;-77
2022/04/11 07:01:08;;;;;;;;;;;;;;;16.10;34.75;101982.53;5051103;28;19931;-79
2022/04/11 07:03:33;;;;;;;;;;;;;;;16.32;34.41;101980.91;5051623;28;19947;-79
2022/04/11 07:05:58;;;;;;;;;;;;;;;16.26;34.09;101981.84;5051963;28;19923;-79
2022/04/11 07:08:23;;;;;;;;;;;;;;;15.67;35.09;101976.53;5051420;28;19913;-77
2022/04/11 07:10:49;;;;;;;;;;;;;;;15.81;35.64;101978.81;5049535;28;19913;-73
2022/04/11 07:13:14;;;;;;;;;;;;;;;16.56;34.82;101976.34;5050753;28;20273;-78
2022/04/11 07:15:40;;;;;;;;;;;;;;;16.34;35.09;101978.78;5051498;28;20003;-76
2022/04/11 07:18:06;;;;;;;;;;;;;;;16.44;35.13;101975.47;5050951;28;19920;-77
2022/04/11 07:20:31;;;;;;;;;;;;;;;16.47;34.62;101980.44;5046332;28;20384;-79
2022/04/11 07:22:56;;;;;;;;;;;;;;;16.56;34.66;101982.59;5051206;28;20319;-78
2022/04/11 07:25:24;;;;;;;;;;;;;;;16.10;35.12;101974.38;5051284;28;19944;-77
2022/04/11 07:27:49;;;;;;;;;;;;;;;15.56;36.24;101972.75;5051557;28;19917;-76
2022/04/11 07:30:15;;;;;;;;;;;;;;;16.24;35.43;101969.56;5050756;28;19930;-78
2022/04/11 07:32:40;;;;;;;;;;;;;;;16.31;35.43;101968.38;5040156;28;19936;-78
2022/04/11 07:35:06;;;;;;;;;;;;;;;16.06;35.71;101966.97;5048746;28;20363;-78
2022/04/11 07:37:33;;;;;;;;;;;;;;;16.46;35.42;101965.22;5050847;28;19974;-77
2022/04/11 07:39:59;;;;;;;;;;;;;;;15.70;36.42;101971.47;5043900;28;19978;-80
2022/04/11 07:42:24;;;;;;;;;;;;;;;16.36;35.76;101971.22;5047160;28;19924;-79
2022/04/11 07:44:49;;;;;;;;;;;;;;;17.02;34.98;101967.31;5046455;28;20419;-77
2022/04/11 07:47:15;;;;;;;;;;;;;;;17.39;34.70;101965.88;5048361;28;19912;-77
2022/04/11 07:49:40;;;;;;;;;;;;;;;17.23;35.06;101962.03;5050799;28;19912;-77
2022/04/11 07:52:06;;;;;;;;;;;;;;;17.52;34.03;101961.00;5053092;28;19921;-76
2022/04/11 07:54:31;;;;;;;;;;;;;;;18.02;33.61;101958.34;5054590;28;19999;-77
2022/04/11 07:56:57;;;;;;;;;;;;;;;18.23;33.32;101957.59;5054946;28;19939;-78
2022/04/11 07:59:22;;;;;;;;;;;;;;;18.55;33.14;101952.38;5054630;28;20147;-77
2022/04/11 08:01:47;;;;;;;;;;;;;;;18.23;32.83;101952.16;5055119;28;19921;-77
2022/04/11 08:04:12;;;;;;;;;;;;;;;18.63;33.16;101951.97;5054676;28;19971;-77
2022/04/11 08:06:37;;;;;;;;;;;;;;;18.70;32.50;101954.47;5054622;28;19921;-78
2022/04/11 08:09:03;;;;;;;;;;;;;;;18.74;32.74;101952.91;5053225;28;19924;-76
2022/04/11 08:11:28;;;;;;;;;;;;;;;18.30;33.59;101944.63;5054349;28;19917;-78
2022/04/11 08:13:54;;;;;;;;;;;;;;;18.65;32.48;101930.75;5054799;28;20003;-79
2022/04/11 08:16:19;;;;;;;;;;;;;;;17.95;33.90;101933.19;5054893;28;19932;-78
2022/04/11 08:18:44;;;;;;;;;;;;;;;17.85;34.93;101932.19;5054785;28;20394;-76
2022/04/11 08:21:10;;;;;;;;;;;;;;;18.19;34.83;101925.69;5051033;28;19920;-77
2022/04/11 08:23:35;;;;;;;;;;;;;;;18.04;33.76;101931.69;5054597;28;19917;-77
2022/04/11 08:26:01;;;;;;;;;;;;;;;18.39;34.23;101937.72;5054289;28;19962;-76
2022/04/11 08:28:26;;;;;;;;;;;;;;;18.25;33.85;101928.22;5054970;28;19928;-77
2022/04/11 08:30:52;;;;;;;;;;;;;;;18.66;33.35;101934.28;5054274;28;19913;-78
2022/04/11 08:33:17;;;;;;;;;;;;;;;18.50;33.48;101929.69;5053786;28;19916;-79
2022/04/11 08:35:42;;;;;;;;;;;;;;;19.27;32.70;101931.22;5048981;28;20440;-77
2022/04/11 08:38:08;;;;;;;;;;;;;;;18.86;33.62;101915.47;5053233;28;19912;-77
2022/04/11 08:40:33;;;;;;;;;;;;;;;18.44;32.63;101922.56;5053929;28;19917;-78
2022/04/11 08:42:59;;;;;;;;;;;;;;;19.23;32.75;101921.91;5053896;28;20389;-77
2022/04/11 08:45:25;;;;;;;;;;;;;;;19.52;31.46;101922.53;5053657;28;20666;-78
2022/04/11 08:47:50;;;;;;;;;;;;;;;18.48;33.92;101918.22;5051348;28;19959;-77
2022/04/11 08:50:16;;;;;;;;;;;;;;;18.93;33.62;101908.75;5053799;28;19921;-77
2022/04/11 08:52:41;;;;;;;;;;;;;;;19.52;32.20;101920.59;5084416;28;19912;-76
2022/04/11 08:55:07;;;;;;;;;;;;;;;19.47;31.85;101917.00;5053747;28;19924;-76
2022/04/11 08:57:34;;;;;;;;;;;;;;;19.58;32.33;101914.13;5053326;28;19917;-76
2022/04/11 09:00:00;;;;;;;;;;;;;;;19.52;31.66;101922.53;5053323;28;19932;-77
2022/04/11 09:02:33;;;;;;;;;;;;;;;17.87;34.15;101919.16;5051579;28;19920;-78
2022/04/11 09:04:58;;;;;;;;;;;;;;;18.87;34.11;101914.41;5053638;28;20419;-76
2022/04/11 09:07:24;;;;;;;;;;;;;;;19.44;32.78;101931.16;5054220;28;20004;-78
2022/04/11 09:09:49;;;;;;;;;;;;;;;18.78;32.89;101924.09;5053653;28;20339;-77
2022/04/11 09:12:16;;;;;;;;;;;;;;;19.80;31.82;101924.94;5054092;28;20396;-77
2022/04/11 09:14:41;;;;;;;;;;;;;;;19.85;31.27;101923.06;5053921;28;19917;-76
2022/04/11 09:17:09;;;;;;;;;;;;;;;19.13;31.71;101924.50;5054558;28;20533;-76
2022/04/11 09:19:34;;;;;;;;;;;;;;;19.20;32.63;101925.97;5054349;28;19916;-76
2022/04/11 09:22:02;;;;;;;;;;;;;;;20.02;30.69;101923.78;5077810;28;19952;-76
2022/04/11 09:24:29;;;;;;;;;;;;;;;20.45;30.74;101921.91;5052002;28;19917;-77
2022/04/11 09:26:55;;;;;;;;;;;;;;;19.82;32.06;101909.16;5052988;28;19920;-74
2022/04/11 09:29:24;;;;;;;;;;;;;;;19.39;30.87;101912.00;5052769;28;19917;-76
2022/04/11 09:31:50;;;;;;;;;;;;;;;19.69;30.99;101910.41;5051893;28;20002;-74
2022/04/11 09:34:22;;;;;;;;;;;;;;;19.31;31.11;101905.09;5052916;28;20011;-75
2022/04/11 09:36:55;;;;;;;;;;;;;;;19.32;30.95;101897.75;5052781;28;19917;-75
2022/04/11 09:39:21;;;;;;;;;;;;;;;20.38;30.36;101894.84;5052871;28;19916;-77
2022/04/11 09:41:47;;;;;;;;;;;;;;;19.48;31.15;101889.47;5052406;28;19928;-76
2022/04/11 09:44:20;;;;;;;;;;;;;;;19.96;30.71;101894.81;5052243;28;19913;-73
2022/04/11 09:46:45;;;;;;;;;;;;;;;20.14;30.43;101886.22;5050752;28;20299;-76
2022/04/11 09:49:10;;;;;;;;;;;;;;;19.70;31.00;101881.22;5052431;28;19927;-77
2022/04/11 09:51:35;;;;;;;;;;;;;;;20.10;29.89;101882.38;5053336;28;19921;-77
2022/04/11 09:54:20;;;;;;;;;;;;;;;19.39;30.60;101879.31;5053240;28;19916;-76
2022/04/11 09:56:45;;;;;;;;;;;;;;;20.88;28.79;101878.69;5051383;28;20356;-76
2022/04/11 09:59:11;;;;;;;;;;;;;;;20.50;30.06;101872.78;5052490;28;19978;-76
2022/04/11 10:01:37;;;;;;;;;;;;;;;20.78;28.97;101872.34;5050641;28;19921;-77
2022/04/11 10:04:03;;;;;;;;;;;;;;;20.20;29.13;101872.63;5052708;28;20300;-77
2022/04/11 10:06:29;;;;;;;;;;;;;;;20.56;28.23;101871.72;5053335;28;19923;-76
2022/04/11 10:08:55;;;;;;;;;;;;;;;20.46;27.93;101871.69;5053476;28;19996;-79
2022/04/11 10:11:20;;;;;;;;;;;;;;;20.09;29.02;101868.94;5051503;28;19967;-77
2022/04/11 10:13:47;;;;;;;;;;;;;;;21.54;28.07;101860.50;5052944;28;19912;-78
2022/04/11 10:16:12;;;;;;;;;;;;;;;21.47;28.19;101857.22;5052876;28;19921;-77
2022/04/11 10:18:38;;;;;;;;;;;;;;;20.70;27.60;101867.41;5053267;28;19939;-77
2022/04/11 10:21:05;;;;;;;;;;;;;;;19.97;29.46;101877.34;5052421;28;19928;-76
2022/04/11 10:23:31;;;;;;;;;;;;;;;21.13;27.22;101867.00;5052955;28;20478;-78
2022/04/11 10:26:03;;;;;;;;;;;;;;;21.75;27.96;101866.81;5052175;28;19917;-76
2022/04/11 10:28:29;;;;;;;;;;;;;;;21.28;27.27;101869.78;5052537;28;20009;-76
2022/04/11 10:31:09;;;;;;;;;;;;;;;21.72;26.54;101859.97;5052158;28;19974;-77
2022/04/11 10:33:50;;;;;;;;;;;;;;;22.66;25.89;101853.78;5046205;28;19919;-78
2022/04/11 10:36:25;;;;;;;;;;;;;;;22.54;26.57;101854.03;5049957;28;19975;-78
2022/04/11 10:39:09;;;;;;;;;;;;;;;21.71;26.25;101852.03;5049551;28;19917;-78
2022/04/11 10:41:53;;;;;;;;;;;;;;;22.91;25.41;101850.91;5050087;28;19928;-77
2022/04/11 10:44:42;;;;;;;;;;;;;;;21.25;26.58;101842.16;5050481;28;20019;-78
2022/04/11 10:47:10;;;;;;;;;;;;;;;21.19;25.73;101840.53;5051986;28;19913;-79
2022/04/11 10:49:44;;;;;;;;;;;;;;;20.89;25.48;101843.97;5052357;28;20054;-77
2022/04/11 10:52:25;;;;;;;;;;;;;;;22.69;24.37;101836.75;5052007;28;19940;-78
2022/04/11 10:54:53;;;;;;;;;;;;;;;21.99;25.79;101837.81;5049348;28;19916;-78
2022/04/11 10:57:41;;;;;;;;;;;;;;;22.38;24.61;101836.06;5051717;28;19916;-77
2022/04/11 11:00:17;;;;;;;;;;;;;;;21.34;26.07;101835.06;5051095;28;19921;-77
2022/04/11 11:02:48;;;;;;;;;;;;;;;21.34;27.24;101837.81;5052130;28;19972;-78
2022/04/11 11:05:29;;;;;;;;;;;;;;;21.56;26.13;101830.16;5075283;28;19912;-73
2022/04/11 11:08:06;;;;;;;;;;;;;;;21.52;27.20;101824.38;5050965;28;20403;-77
2022/04/11 11:10:50;;;;;;;;;;;;;;;22.86;25.10;101830.94;5051312;28;20414;-77
2022/04/11 11:13:34;;;;;;;;;;;;;;;22.95;25.13;101823.75;5048570;28;20008;-74
2022/04/11 11:16:11;;;;;;;;;;;;;;;21.99;25.60;101818.66;5052196;28;19916;-75
2022/04/11 11:18:52;;;;;;;;;;;;;;;22.54;25.24;101821.16;5052607;28;20387;-79
2022/04/11 11:21:17;;;;;;;;;;;;;;;22.65;24.80;101817.34;5050558;28;19921;-78
2022/04/11 11:24:10;;;;;;;;;;;;;;;22.32;25.97;101806.22;5051749;28;19917;-79
2022/04/11 11:26:48;;;;;;;;;;;;;;;22.78;24.45;101807.66;5051480;28;20352;-78
2022/04/11 11:29:17;;;;;;;;;;;;;;;23.97;23.24;101801.50;5051504;28;19928;-76
2022/04/11 11:31:42;;;;;;;;;;;;;;;23.12;23.59;101796.75;5049109;28;19924;-76
2022/04/11 11:34:18;;;;;;;;;;;;;;;23.24;23.20;101789.81;5049131;28;19921;-76
2022/04/11 11:36:44;;;;;;;;;;;;;;;23.43;23.99;101782.53;5047941;28;20262;-78
2022/04/11 11:39:13;;;;;;;;;;;;;;;22.69;24.32;101774.56;5048039;28;19928;-78
2022/04/11 11:41:42;;;;;;;;;;;;;;;22.26;24.95;101763.50;5049297;28;20003;-77
2022/04/11 11:44:07;;;;;;;;;;;;;;;22.62;24.54;101765.81;5048775;28;19927;-76
2022/04/11 11:46:44;;;;;;;;;;;;;;;22.19;23.30;101766.53;5050694;28;19909;-73
2022/04/11 11:49:09;;;;;;;;;;;;;;;22.77;23.19;101755.88;5049457;28;19931;-76
2022/04/11 11:51:35;;;;;;;;;;;;;;;23.55;23.81;101760.19;5050097;28;20066;-77
2022/04/11 11:54:01;;;;;;;;;;;;;;;23.10;22.60;101764.13;5049766;28;20388;-78
2022/04/11 11:56:38;;;;;;;;;;;;;;;23.47;23.55;101764.38;5049850;28;19925;-75
2022/04/11 11:59:03;;;;;;;;;;;;;;;22.60;21.66;101762.53;5051497;28;20007;-76
2022/04/11 12:01:29;;;;;;;;;;;;;;;23.69;23.31;101761.16;5050800;28;20019;-77
2022/04/11 12:06:38;;;;;;;;;;;;;;;23.51;23.40;101745.41;5048846;28;19944;-78
2022/04/11 12:09:04;;;;;;;;;;;;;;;24.04;22.48;101744.31;5047201;28;19935;-78
2022/04/11 12:11:30;;;;;;;;;;;;;;;23.40;22.21;101749.38;5048640;28;19939;-74
2022/04/11 12:14:13;;;;;;;;;;;;;;;23.59;22.21;101744.78;5050057;28;20395;-77
2022/04/11 12:16:53;;;;;;;;;;;;;;;23.17;23.16;101737.22;5049736;28;19935;-77
2022/04/11 12:19:19;;;;;;;;;;;;;;;23.74;23.11;101724.63;5048888;28;20331;-76
2022/04/11 12:21:44;;;;;;;;;;;;;;;23.70;21.79;101727.13;5050739;28;19963;-77
2022/04/11 12:24:10;;;;;;;;;;;;;;;24.33;21.36;101719.53;5049174;28;19924;-76
2022/04/11 12:26:36;;;;;;;;;;;;;;;25.17;21.13;101718.53;5049848;28;19917;-76
2022/04/11 12:29:07;;;;;;;;;;;;;;;25.12;21.37;101713.09;5050114;28;19944;-77
2022/04/11 12:31:32;;;;;;;;;;;;;;;24.28;21.55;101709.41;5050142;28;19984;-74
2022/04/11 12:34:08;;;;;;;;;;;;;;;24.34;21.92;101710.97;5049667;28;20408;-76
2022/04/11 12:36:34;;;;;;;;;;;;;;;24.38;21.21;101706.53;5048428;28;19981;-77